Time;durP1;ratioP1;P1;durP2;ratioP2;P2;SDS_P1;SDS_P2;PMS_P1;PMS_P2;Temp;Humidity;BMP_temperature;BMP_pressure;BME280_temperature;BME280_humidity;BME280_pressure;Samples;Min_cycle;Max_cycle;Signal;HPM_P1;HPM_P2
2023/10/24 00:02:27;;;;;;;14.97;6.77;;;;;;;7.64;100.00;101080.91;7333557;19;20519;-42
2023/10/24 00:04:56;;;;;;;11.87;6.47;;;;;;;7.62;100.00;101075.66;7372316;19;20781;-42
2023/10/24 00:07:28;;;;;;;10.40;5.90;;;;;;;7.66;100.00;101069.94;7346723;19;20950;-44
2023/10/24 00:09:58;;;;;;;11.73;6.23;;;;;;;7.62;100.00;101057.69;7378246;19;20937;-42
2023/10/24 00:12:28;;;;;;;11.83;6.20;;;;;;;7.65;100.00;101057.00;7364261;19;20457;-42
2023/10/24 00:14:57;;;;;;;11.03;5.83;;;;;;;7.66;100.00;101048.47;7389741;19;20971;-42
2023/10/24 00:17:27;;;;;;;9.40;5.50;;;;;;;7.62;100.00;101046.53;7357162;19;20435;-42
2023/10/24 00:19:57;;;;;;;12.90;6.20;;;;;;;7.62;100.00;101044.84;7389724;19;20403;-43
2023/10/24 00:22:29;;;;;;;21.43;8.17;;;;;;;7.66;100.00;101044.25;7359570;19;21160;-42
2023/10/24 00:24:59;;;;;;;45.37;18.47;;;;;;;7.70;100.00;101046.16;7389489;19;20448;-43
2023/10/24 00:27:28;;;;;;;9.03;5.63;;;;;;;7.68;100.00;101047.78;7358631;19;21236;-42
2023/10/24 00:29:58;;;;;;;26.90;13.07;;;;;;;7.75;100.00;101049.00;7389233;19;20414;-42
2023/10/24 00:32:27;;;;;;;10.83;6.90;;;;;;;7.76;100.00;101044.75;7338912;19;20499;-42
2023/10/24 00:34:57;;;;;;;16.67;8.20;;;;;;;7.75;100.00;101033.59;7389708;19;20416;-42
2023/10/24 00:37:29;;;;;;;10.90;6.37;;;;;;;7.81;100.00;101048.47;7317290;19;20833;-42
2023/10/24 00:39:59;;;;;;;10.63;5.87;;;;;;;7.80;100.00;101044.16;7390561;19;20409;-42
2023/10/24 00:42:28;;;;;;;13.43;6.20;;;;;;;7.79;100.00;101037.25;7350370;19;20456;-42
2023/10/24 00:44:58;;;;;;;11.43;6.43;;;;;;;7.77;100.00;101034.59;7389074;19;20411;-42
2023/10/24 00:47:28;;;;;;;29.83;9.60;;;;;;;7.82;100.00;101037.41;7355027;19;20495;-41
2023/10/24 00:49:57;;;;;;;8.87;5.30;;;;;;;7.84;100.00;101026.44;7388502;19;20436;-42
2023/10/24 00:52:30;;;;;;;11.77;6.27;;;;;;;7.85;100.00;101019.63;7362103;19;20801;-42
2023/10/24 00:54:59;;;;;;;14.43;6.23;;;;;;;7.88;100.00;101018.88;7388713;19;20414;-42
2023/10/24 00:57:29;;;;;;;17.13;7.30;;;;;;;7.86;100.00;101015.34;7361830;19;20425;-42
2023/10/24 00:59:59;;;;;;;10.27;5.00;;;;;;;7.90;100.00;101007.88;7388702;19;20412;-42
2023/10/24 01:02:29;;;;;;;18.27;8.27;;;;;;;7.87;100.00;101006.84;7352182;19;20447;-42
2023/10/24 01:04:59;;;;;;;14.00;7.10;;;;;;;7.87;100.00;100997.47;7387829;19;21291;-42
2023/10/24 01:07:31;;;;;;;13.17;6.97;;;;;;;7.91;100.00;101001.97;7350508;19;20457;-43
2023/10/24 01:10:01;;;;;;;10.60;6.23;;;;;;;7.93;100.00;101004.63;7387819;19;20411;-42
2023/10/24 01:12:30;;;;;;;12.47;6.30;;;;;;;7.97;100.00;100992.06;7363687;19;20998;-42
2023/10/24 01:15:00;;;;;;;12.57;6.90;;;;;;;7.97;100.00;100994.63;7388088;19;20399;-42
2023/10/24 01:17:29;;;;;;;12.40;7.00;;;;;;;7.99;100.00;100986.09;7360888;19;20428;-42
2023/10/24 01:19:59;;;;;;;9.40;6.13;;;;;;;8.00;100.00;100985.31;7384914;19;20753;-42
2023/10/24 01:22:31;;;;;;;11.27;6.40;;;;;;;8.01;100.00;100987.06;7326839;19;20522;-41
2023/10/24 01:25:01;;;;;;;12.40;6.30;;;;;;;8.04;100.00;100987.22;7387382;19;20491;-42
2023/10/24 01:27:31;;;;;;;11.93;6.80;;;;;;;8.04;100.00;100988.13;7363412;19;20427;-42
2023/10/24 01:30:00;;;;;;;12.97;6.87;;;;;;;8.02;100.00;100975.97;7387790;19;20424;-42
2023/10/24 01:32:33;;;;;;;12.60;6.73;;;;;;;8.05;100.00;100976.16;7359417;19;20787;-42
2023/10/24 01:35:03;;;;;;;13.17;6.63;;;;;;;8.07;100.00;100977.13;7387599;19;20415;-41
2023/10/24 01:37:35;;;;;;;19.50;6.97;;;;;;;8.09;100.00;100976.41;7361391;19;20426;-42
2023/10/24 01:40:05;;;;;;;10.53;6.30;;;;;;;8.11;100.00;100971.38;7387769;19;20411;-41
2023/10/24 01:42:35;;;;;;;11.10;6.43;;;;;;;8.14;100.00;100962.94;7352994;19;20555;-41
2023/10/24 01:45:05;;;;;;;12.37;7.07;;;;;;;8.13;100.00;100969.75;7388150;19;20410;-44
2023/10/24 01:47:34;;;;;;;14.33;7.03;;;;;;;8.15;100.00;100967.28;7362057;19;20430;-41
2023/10/24 01:50:05;;;;;;;13.43;7.10;;;;;;;8.17;100.00;100961.44;7386567;19;20399;-41
2023/10/24 01:52:37;;;;;;;12.80;7.40;;;;;;;8.18;100.00;100960.63;7359690;19;22096;-42
2023/10/24 01:55:08;;;;;;;13.03;7.07;;;;;;;8.16;100.00;100959.63;7385627;19;20415;-42
2023/10/24 01:57:38;;;;;;;14.27;7.80;;;;;;;8.18;100.00;100946.88;7357930;19;20458;-42
2023/10/24 02:00:09;;;;;;;14.47;8.10;;;;;;;8.19;100.00;100941.81;7386842;19;20407;-42
2023/10/24 02:02:38;;;;;;;18.40;7.40;;;;;;;8.21;100.00;100937.63;7360892;19;20451;-42
2023/10/24 02:05:09;;;;;;;13.30;7.43;;;;;;;8.23;100.00;100925.78;7385962;19;20430;-42
2023/10/24 02:07:42;;;;;;;22.43;9.03;;;;;;;8.23;100.00;100915.50;7358881;19;20430;-42
2023/10/24 02:10:12;;;;;;;17.00;8.60;;;;;;;8.22;100.00;100903.41;7386020;19;20396;-42
2023/10/24 02:12:42;;;;;;;14.10;8.00;;;;;;;8.20;100.00;100889.59;7333281;19;21051;-42
2023/10/24 02:15:12;;;;;;;19.10;9.47;;;;;;;8.23;100.00;100881.19;7386422;19;20406;-44
2023/10/24 02:17:43;;;;;;;11.20;7.30;;;;;;;8.27;100.00;100884.78;7362641;19;20423;-42
2023/10/24 02:20:13;;;;;;;15.43;7.60;;;;;;;8.23;100.00;100878.59;7384808;19;20973;-42
2023/10/24 02:22:49;;;;;;;22.47;11.07;;;;;;;8.27;100.00;100877.09;7332467;19;20427;-45
2023/10/24 02:25:19;;;;;;;14.77;6.67;;;;;;;8.28;100.00;100868.56;7385322;19;20804;-41
2023/10/24 02:27:46;;;;;;;13.40;7.47;;;;;;;8.26;100.00;100867.59;7362064;19;20447;-41
2023/10/24 02:30:15;;;;;;;15.50;7.97;;;;;;;8.28;100.00;100855.72;7385673;19;20403;-42
2023/10/24 02:32:45;;;;;;;18.33;9.53;;;;;;;8.31;100.00;100851.59;7359763;19;20462;-41
2023/10/24 02:35:15;;;;;;;17.40;7.70;;;;;;;8.36;100.00;100841.59;7385206;19;20418;-43
2023/10/24 02:37:47;;;;;;;13.90;7.10;;;;;;;8.35;100.00;100834.66;7362484;19;20423;-42
2023/10/24 02:40:18;;;;;;;16.33;9.10;;;;;;;8.33;100.00;100829.47;7390165;19;20407;-42
2023/10/24 02:42:47;;;;;;;16.77;8.70;;;;;;;8.37;100.00;100825.34;7355154;19;20458;-42
2023/10/24 02:45:17;;;;;;;16.57;8.80;;;;;;;8.37;100.00;100822.78;7392165;19;20415;-42
2023/10/24 02:47:46;;;;;;;13.07;7.07;;;;;;;8.37;100.00;100820.22;7367756;19;20535;-42
2023/10/24 02:50:16;;;;;;;15.67;8.67;;;;;;;8.43;100.00;100814.50;7391335;19;20403;-42
2023/10/24 02:52:48;;;;;;;13.73;7.30;;;;;;;8.45;100.00;100813.78;7364284;19;20447;-42
2023/10/24 02:55:18;;;;;;;14.40;7.80;;;;;;;8.46;100.00;100805.25;7393657;19;20490;-42
2023/10/24 02:57:48;;;;;;;17.40;9.77;;;;;;;8.49;100.00;100807.09;7376246;19;20419;-42
2023/10/24 03:00:19;;;;;;;19.20;7.40;;;;;;;8.47;100.00;100812.16;7398586;19;20851;-42
2023/10/24 03:02:48;;;;;;;12.70;6.40;;;;;;;8.50;100.00;100820.03;7334434;19;21014;-42
2023/10/24 03:05:18;;;;;;;22.73;7.77;;;;;;;8.54;100.00;100817.63;7398303;19;20403;-42
2023/10/24 03:07:50;;;;;;;11.50;6.77;;;;;;;8.56;100.00;100810.91;7369370;19;20437;-43
2023/10/24 03:10:20;;;;;;;17.10;8.43;;;;;;;8.62;100.00;100800.94;7398545;19;20435;-41
2023/10/24 03:12:49;;;;;;;12.80;7.40;;;;;;;8.62;100.00;100800.94;7330887;19;20459;-41
2023/10/24 03:15:19;;;;;;;15.87;8.53;;;;;;;8.62;100.00;100798.34;7397723;19;20411;-43
2023/10/24 03:17:49;;;;;;;11.47;7.03;;;;;;;8.64;100.00;100794.16;7374215;19;20498;-41
2023/10/24 03:20:18;;;;;;;13.80;7.80;;;;;;;8.67;100.00;100783.16;7397870;19;20400;-42
2023/10/24 03:22:51;;;;;;;10.43;6.37;;;;;;;8.68;100.00;100774.63;7372940;19;20475;-41
2023/10/24 03:25:20;;;;;;;12.63;7.13;;;;;;;8.72;100.00;100769.69;7395077;19;20490;-41
2023/10/24 03:27:50;;;;;;;15.53;8.27;;;;;;;8.76;100.00;100756.19;7369815;19;20498;-41
2023/10/24 03:30:20;;;;;;;17.67;8.77;;;;;;;8.79;100.00;100745.16;7397550;19;20415;-41
2023/10/24 03:32:49;;;;;;;11.97;7.10;;;;;;;8.81;100.00;100746.13;7369468;19;20465;-41
2023/10/24 03:35:19;;;;;;;12.27;7.10;;;;;;;8.82;100.00;100737.59;7397535;19;20440;-41
2023/10/24 03:37:51;;;;;;;27.23;11.17;;;;;;;8.83;100.00;100739.38;7373818;19;20440;-41
2023/10/24 03:40:23;;;;;;;12.60;7.23;;;;;;;8.83;100.00;100728.19;7395160;19;20408;-41
2023/10/24 03:42:52;;;;;;;19.30;8.63;;;;;;;8.85;100.00;100731.69;7357206;19;20455;-42
2023/10/24 03:45:22;;;;;;;12.97;7.87;;;;;;;8.83;100.00;100723.03;7395794;19;20762;-42
2023/10/24 03:47:52;;;;;;;12.80;7.13;;;;;;;8.82;100.00;100721.28;7357972;19;20506;-42
2023/10/24 03:50:22;;;;;;;13.77;8.23;;;;;;;8.80;100.00;100735.75;7397006;19;20415;-42
2023/10/24 03:52:54;;;;;;;19.93;8.17;;;;;;;8.82;100.00;100727.28;7346867;19;20451;-42
2023/10/24 03:55:24;;;;;;;13.83;8.30;;;;;;;8.83;100.00;100717.91;7396925;19;20408;-41
2023/10/24 03:57:53;;;;;;;13.53;7.63;;;;;;;8.83;100.00;100712.75;7348529;19;20431;-43
2023/10/24 04:00:23;;;;;;;12.53;7.67;;;;;;;8.81;100.00;100709.22;7395667;19;20919;-41
2023/10/24 04:02:53;;;;;;;21.33;8.27;;;;;;;8.82;100.00;100711.84;7362397;19;20443;-42
2023/10/24 04:05:23;;;;;;;11.13;7.60;;;;;;;8.83;100.00;100711.06;7396556;19;20483;-42
2023/10/24 04:07:55;;;;;;;12.47;7.60;;;;;;;8.85;100.00;100708.56;7371053;19;20495;-42
2023/10/24 04:10:25;;;;;;;19.03;8.43;;;;;;;8.87;100.00;100704.38;7398559;19;20779;-41
2023/10/24 04:12:54;;;;;;;15.93;8.47;;;;;;;8.83;100.00;100707.59;7364500;19;20475;-41
2023/10/24 04:15:24;;;;;;;18.50;8.90;;;;;;;8.84;100.00;100694.81;7395875;19;20418;-41
2023/10/24 04:17:54;;;;;;;12.87;7.90;;;;;;;8.83;100.00;100681.88;7368089;19;20458;-42
2023/10/24 04:20:23;;;;;;;18.60;8.30;;;;;;;8.85;100.00;100680.25;7396354;19;20638;-42
2023/10/24 04:22:56;;;;;;;16.20;8.00;;;;;;;8.88;100.00;100675.25;7368421;19;20459;-41
2023/10/24 04:25:26;;;;;;;15.00;8.50;;;;;;;8.90;100.00;100663.34;7395900;19;20411;-42
2023/10/24 04:27:56;;;;;;;18.53;9.60;;;;;;;8.91;100.00;100654.81;7370251;19;20807;-42
2023/10/24 04:30:25;;;;;;;19.23;9.20;;;;;;;8.89;100.00;100651.28;7396171;19;20491;-42
2023/10/24 04:32:55;;;;;;;18.50;9.40;;;;;;;8.92;100.00;100641.13;7362972;19;20526;-42
2023/10/24 04:35:25;;;;;;;17.17;10.10;;;;;;;8.93;100.00;100642.91;7396019;19;20475;-42
2023/10/24 04:37:57;;;;;;;18.50;9.13;;;;;;;8.91;100.00;100644.50;7340672;19;20502;-42
2023/10/24 04:40:27;;;;;;;13.70;8.60;;;;;;;8.92;100.00;100646.28;7396340;19;20572;-41
2023/10/24 04:42:57;;;;;;;14.43;8.50;;;;;;;8.97;100.00;100649.09;7394707;19;20435;-42
2023/10/24 04:45:29;;;;;;;17.67;8.50;;;;;;;8.95;100.00;100651.59;7395124;19;20919;-41
2023/10/24 04:47:59;;;;;;;14.77;8.07;;;;;;;8.96;100.00;100637.91;7395683;19;20475;-42
2023/10/24 04:50:29;;;;;;;14.70;8.33;;;;;;;8.98;100.00;100635.41;7397114;19;20483;-42
2023/10/24 04:53:01;;;;;;;14.60;7.80;;;;;;;8.98;100.00;100631.13;7394087;19;20449;-42
2023/10/24 04:55:31;;;;;;;16.10;9.33;;;;;;;8.97;100.00;100626.78;7395774;19;20756;-42
2023/10/24 04:58:02;;;;;;;17.23;9.17;;;;;;;8.97;100.00;100639.66;7395142;19;20775;-42
2023/10/24 05:00:32;;;;;;;17.90;9.50;;;;;;;8.97;100.00;100637.09;7390468;19;20407;-42
2023/10/24 05:03:01;;;;;;;13.80;7.50;;;;;;;8.94;100.00;100642.09;7390689;19;20466;-43
2023/10/24 05:05:31;;;;;;;27.80;12.97;;;;;;;8.95;100.00;100646.44;7389569;19;20412;-41
2023/10/24 05:08:06;;;;;;;32.67;15.17;;;;;;;8.96;100.00;100637.03;7388794;19;20419;-42
2023/10/24 05:10:36;;;;;;;15.63;8.60;;;;;;;8.98;100.00;100640.56;7390120;19;20423;-41
2023/10/24 05:13:06;;;;;;;26.60;9.00;;;;;;;8.94;100.00;100644.69;7387519;19;20987;-41
2023/10/24 05:15:35;;;;;;;18.03;9.43;;;;;;;8.95;100.00;100638.72;7386805;19;20464;-41
2023/10/24 05:18:05;;;;;;;18.17;8.57;;;;;;;8.98;100.00;100625.09;7386556;19;20408;-41
2023/10/24 05:20:35;;;;;;;17.40;9.43;;;;;;;8.99;100.00;100601.13;7387923;19;20415;-41
2023/10/24 05:23:07;;;;;;;15.57;8.60;;;;;;;8.96;100.00;100601.00;7390035;19;20454;-41
2023/10/24 05:25:36;;;;;;;15.70;9.00;;;;;;;8.94;100.00;100606.06;7388818;19;20411;-41
2023/10/24 05:28:07;;;;;;;26.83;13.90;;;;;;;8.90;100.00;100611.88;7388921;19;20491;-42
2023/10/24 05:30:39;;;;;;;20.00;9.90;;;;;;;8.92;100.00;100605.09;7390143;19;20411;-41
2023/10/24 05:33:09;;;;;;;17.50;9.43;;;;;;;8.95;100.00;100610.41;7388758;19;20850;-42
2023/10/24 05:35:38;;;;;;;14.77;8.53;;;;;;;8.94;100.00;100603.50;7386995;19;20412;-42
2023/10/24 05:38:10;;;;;;;17.37;9.73;;;;;;;8.96;100.00;100599.28;7388944;19;21091;-42
2023/10/24 05:40:40;;;;;;;19.67;9.17;;;;;;;8.97;100.00;100613.91;7389042;19;20424;-42
2023/10/24 05:43:10;;;;;;;17.17;9.30;;;;;;;8.98;100.00;100607.09;7387919;19;20463;-42
2023/10/24 05:45:39;;;;;;;16.43;9.20;;;;;;;8.95;100.00;100600.13;7386372;19;20414;-42
2023/10/24 05:48:09;;;;;;;17.70;10.43;;;;;;;8.96;100.00;100591.59;7382410;19;20427;-42
2023/10/24 05:50:39;;;;;;;25.10;9.77;;;;;;;8.97;100.00;100583.03;7387822;19;20418;-42
2023/10/24 05:53:11;;;;;;;32.83;13.93;;;;;;;9.07;100.00;100570.59;7388934;19;20447;-42
2023/10/24 05:55:41;;;;;;;24.50;12.47;;;;;;;9.04;100.00;100556.78;7386668;19;20415;-42
2023/10/24 05:58:11;;;;;;;18.90;10.30;;;;;;;9.04;100.00;100533.59;7388702;19;20443;-42
2023/10/24 06:00:40;;;;;;;17.53;9.40;;;;;;;9.00;100.00;100526.59;7387532;19;20969;-42
2023/10/24 06:03:10;;;;;;;19.73;9.93;;;;;;;9.01;100.00;100512.91;7388740;19;20451;-41
2023/10/24 06:05:40;;;;;;;22.93;11.13;;;;;;;9.00;100.00;100521.44;7388230;19;20487;-41
2023/10/24 06:08:12;;;;;;;16.23;8.97;;;;;;;9.01;100.00;100506.84;7387949;19;20412;-41
2023/10/24 06:10:42;;;;;;;17.07;9.37;;;;;;;9.02;100.00;100508.59;7387657;19;20406;-43
2023/10/24 06:13:18;;;;;;;18.30;9.00;;;;;;;9.00;100.00;100507.69;7387062;19;20446;-42
2023/10/24 06:15:48;;;;;;;19.40;10.77;;;;;;;8.99;100.00;100524.81;7386382;19;20404;-42
2023/10/24 06:18:17;;;;;;;30.20;12.40;;;;;;;9.05;100.00;100526.78;7386183;19;20415;-43
2023/10/24 06:20:47;;;;;;;16.57;10.13;;;;;;;9.03;100.00;100529.28;7387213;19;20483;-42
2023/10/24 06:23:20;;;;;;;20.20;10.60;;;;;;;9.06;100.00;100513.09;7386776;19;20523;-42
2023/10/24 06:25:49;;;;;;;15.83;9.30;;;;;;;9.02;100.00;100519.78;7386929;19;20406;-41
2023/10/24 06:28:19;;;;;;;18.00;10.30;;;;;;;9.07;100.00;100519.13;7386247;19;20416;-41
2023/10/24 06:30:49;;;;;;;23.07;12.37;;;;;;;9.04;100.00;100528.47;7390312;19;20411;-41
2023/10/24 06:33:18;;;;;;;23.27;11.30;;;;;;;9.08;100.00;100514.03;7393085;19;21020;-42
2023/10/24 06:35:48;;;;;;;21.63;11.17;;;;;;;9.10;100.00;100496.97;7395216;19;20406;-42
2023/10/24 06:38:20;;;;;;;21.80;11.30;;;;;;;9.13;100.00;100485.94;7393531;19;21107;-42
2023/10/24 06:40:50;;;;;;;16.50;9.03;;;;;;;9.08;100.00;100478.00;7393684;19;20403;-41
2023/10/24 06:43:20;;;;;;;18.60;10.00;;;;;;;9.08;100.00;100474.56;7393485;19;20977;-42
2023/10/24 06:45:50;;;;;;;20.20;10.10;;;;;;;9.09;100.00;100460.88;7392334;19;20410;-41
2023/10/24 06:48:20;;;;;;;21.60;10.60;;;;;;;9.08;100.00;100456.53;7392309;19;20411;-41
2023/10/24 06:50:50;;;;;;;16.30;9.63;;;;;;;9.11;100.00;100460.13;7393659;19;20398;-42
2023/10/24 06:53:22;;;;;;;19.77;11.27;;;;;;;9.08;100.00;100462.56;7392756;19;20451;-41
2023/10/24 06:55:52;;;;;;;25.20;11.07;;;;;;;9.06;100.00;100477.06;7394424;19;20418;-42
2023/10/24 06:58:21;;;;;;;20.70;10.03;;;;;;;9.05;100.00;100478.78;7392275;19;20767;-42
2023/10/24 07:00:51;;;;;;;21.13;10.27;;;;;;;9.02;100.00;100470.91;7391550;19;20415;-41
2023/10/24 07:03:21;;;;;;;23.20;11.60;;;;;;;9.03;100.00;100474.38;7390787;19;20447;-41
2023/10/24 07:05:54;;;;;;;24.97;11.50;;;;;;;9.06;100.00;100479.63;7390257;19;20432;-41
2023/10/24 07:08:26;;;;;;;17.67;10.87;;;;;;;9.09;100.00;100473.75;7392813;19;20415;-41
2023/10/24 07:10:56;;;;;;;20.73;10.67;;;;;;;9.10;100.00;100465.19;7391637;19;20436;-41
2023/10/24 07:13:25;;;;;;;19.43;9.97;;;;;;;9.05;100.00;100465.91;7391445;19;20806;-41
2023/10/24 07:15:55;;;;;;;22.07;11.20;;;;;;;9.07;100.00;100459.94;7390862;19;20494;-41
2023/10/24 07:18:24;;;;;;;19.70;10.23;;;;;;;9.05;100.00;100458.19;7393590;19;20411;-40
2023/10/24 07:20:59;;;;;;;18.40;10.40;;;;;;;9.07;100.00;100447.06;7392086;19;20423;-42
2023/10/24 07:23:31;;;;;;;26.47;10.80;;;;;;;9.09;100.00;100448.00;7391454;19;21078;-41
2023/10/24 07:26:00;;;;;;;17.63;10.07;;;;;;;9.09;100.00;100448.00;7381983;19;20838;-41
2023/10/24 07:28:30;;;;;;;24.17;12.03;;;;;;;9.13;100.00;100447.34;7379817;19;20490;-41
2023/10/24 07:31:00;;;;;;;20.43;10.97;;;;;;;9.16;100.00;100450.03;7382867;19;20403;-40
2023/10/24 07:33:30;;;;;;;25.23;10.50;;;;;;;9.15;100.00;100448.28;7389512;19;20563;-40
2023/10/24 07:36:06;;;;;;;20.57;11.00;;;;;;;9.15;100.00;100450.84;7362118;19;20449;-40
2023/10/24 07:38:38;;;;;;;26.23;12.07;;;;;;;9.17;100.00;100446.63;7387095;19;20418;-40
2023/10/24 07:41:08;;;;;;;19.60;11.30;;;;;;;9.20;100.00;100441.63;7364389;19;20514;-40
2023/10/24 07:43:38;;;;;;;21.77;11.17;;;;;;;9.21;100.00;100458.81;7388182;19;20498;-40
2023/10/24 07:46:07;;;;;;;20.70;11.50;;;;;;;9.19;100.00;100460.47;7367052;19;20419;-41
2023/10/24 07:48:37;;;;;;;18.70;12.53;;;;;;;9.21;100.00;100478.53;7388701;19;20407;-39
2023/10/24 07:51:10;;;;;;;22.27;10.97;;;;;;;9.21;100.00;100474.28;7367297;19;22594;-40
2023/10/24 07:53:43;;;;;;;22.50;12.70;;;;;;;9.18;100.00;100472.44;7389029;19;20451;-41
2023/10/24 07:56:12;;;;;;;22.10;11.70;;;;;;;9.20;100.00;100462.22;7367123;19;20434;-41
2023/10/24 07:58:42;;;;;;;24.83;12.87;;;;;;;9.17;100.00;100457.81;7387218;19;20487;-41
2023/10/24 08:01:11;;;;;;;20.67;12.27;;;;;;;9.18;100.00;100466.44;7364637;19;20426;-41
2023/10/24 08:03:42;;;;;;;18.87;11.20;;;;;;;9.19;100.00;100452.75;7386211;19;20446;-41
2023/10/24 08:06:11;;;;;;;19.73;11.53;;;;;;;9.23;100.00;100439.16;7364600;19;20429;-41
2023/10/24 08:08:45;;;;;;;25.67;12.13;;;;;;;9.24;100.00;100433.22;7385827;19;20939;-41
2023/10/24 08:11:14;;;;;;;18.47;11.87;;;;;;;9.25;100.00;100429.84;7364886;19;20490;-41
2023/10/24 08:13:44;;;;;;;23.37;11.70;;;;;;;9.25;100.00;100427.25;7386275;19;20785;-41
2023/10/24 08:16:14;;;;;;;23.47;12.43;;;;;;;9.28;100.00;100432.53;7364817;19;20447;-42
2023/10/24 08:18:44;;;;;;;27.97;13.13;;;;;;;9.32;100.00;100429.28;7386225;19;20939;-40
2023/10/24 08:21:14;;;;;;;22.03;12.27;;;;;;;9.30;100.00;100412.88;7364485;19;20451;-41
2023/10/24 08:23:46;;;;;;;23.53;12.37;;;;;;;9.34;100.00;100413.00;7385420;19;20515;-40
2023/10/24 08:26:16;;;;;;;21.87;13.27;;;;;;;9.34;100.00;100418.16;7366345;19;20452;-41
2023/10/24 08:28:46;;;;;;;28.37;13.90;;;;;;;9.31;100.00;100409.50;7386389;19;20479;-40
2023/10/24 08:31:16;;;;;;;23.20;13.50;;;;;;;9.36;100.00;100403.63;7362088;19;20974;-44
2023/10/24 08:33:46;;;;;;;22.83;12.80;;;;;;;9.36;100.00;100411.34;7386403;19;20818;-41
2023/10/24 08:36:15;;;;;;;23.00;12.47;;;;;;;9.38;100.00;100409.75;7365796;19;20438;-40
2023/10/24 08:38:47;;;;;;;17.47;11.67;;;;;;;9.39;100.00;100402.06;7385628;19;20960;-39
2023/10/24 08:41:19;;;;;;;25.03;13.13;;;;;;;9.39;100.00;100403.78;7364391;19;20431;-41
2023/10/24 08:43:49;;;;;;;26.43;13.67;;;;;;;9.42;100.00;100391.91;7387177;19;20777;-40
2023/10/24 08:46:19;;;;;;;24.57;13.37;;;;;;;9.42;100.00;100385.88;7364800;19;20838;-40
2023/10/24 08:48:50;;;;;;;21.00;12.90;;;;;;;9.41;100.00;100379.84;7386392;19;20419;-40
2023/10/24 08:51:20;;;;;;;22.13;13.50;;;;;;;9.43;100.00;100380.78;7363017;19;20423;-40
2023/10/24 08:53:52;;;;;;;25.77;13.20;;;;;;;9.40;100.00;100382.34;7383625;19;20431;-40
2023/10/24 08:56:21;;;;;;;22.07;13.40;;;;;;;9.41;100.00;100376.38;7365674;19;20498;-43
2023/10/24 08:58:52;;;;;;;25.93;15.00;;;;;;;9.40;100.00;100375.53;7386670;19;20420;-39
2023/10/24 09:01:22;;;;;;;23.93;13.50;;;;;;;9.41;100.00;100378.97;7364736;19;20780;-40
2023/10/24 09:03:54;;;;;;;21.77;13.43;;;;;;;9.44;100.00;100379.97;7387138;19;20435;-39
2023/10/24 09:06:23;;;;;;;20.93;13.30;;;;;;;9.47;100.00;100379.22;7367539;19;20449;-39
2023/10/24 09:08:56;;;;;;;21.73;12.67;;;;;;;9.48;100.00;100385.25;7387597;19;20483;-40
2023/10/24 09:11:25;;;;;;;25.80;13.80;;;;;;;9.49;100.00;100367.25;7362546;19;20853;-40
2023/10/24 09:13:55;;;;;;;20.93;13.73;;;;;;;9.53;100.00;100358.00;7387481;19;20431;-40
2023/10/24 09:16:28;;;;;;;23.97;12.83;;;;;;;9.54;100.00;100350.31;7366569;19;20454;-40
2023/10/24 09:18:58;;;;;;;25.73;13.97;;;;;;;9.53;100.00;100350.25;7388837;19;20403;-40
2023/10/24 09:21:28;;;;;;;24.93;13.33;;;;;;;9.53;100.00;100353.69;7363924;19;20426;-40
2023/10/24 09:24:00;;;;;;;24.00;14.00;;;;;;;9.54;100.00;100345.16;7386679;19;20518;-40
2023/10/24 09:26:30;;;;;;;21.70;13.17;;;;;;;9.57;100.00;100347.88;7365451;19;20419;-42
2023/10/24 09:28:59;;;;;;;24.87;12.93;;;;;;;9.61;100.00;100351.44;7385606;19;20418;-41
2023/10/24 09:31:29;;;;;;;20.97;12.50;;;;;;;9.63;100.00;100347.22;7362865;19;20423;-39
2023/10/24 09:33:59;;;;;;;20.30;13.00;;;;;;;9.66;100.00;100351.59;7387180;19;20459;-40
2023/10/24 09:36:28;;;;;;;18.90;13.23;;;;;;;9.68;100.00;100342.22;7364803;19;20451;-40
2023/10/24 09:39:00;;;;;;;20.90;12.70;;;;;;;9.65;100.00;100339.53;7384374;19;20403;-40
2023/10/24 09:41:30;;;;;;;20.90;13.27;;;;;;;9.67;100.00;100345.63;7364738;19;20502;-40
2023/10/24 09:44:03;;;;;;;21.43;13.00;;;;;;;9.73;100.00;100346.75;7386025;19;21005;-42
2023/10/24 09:46:33;;;;;;;27.57;15.33;;;;;;;9.80;100.00;100347.00;7364799;19;20510;-40
2023/10/24 09:49:03;;;;;;;19.67;12.13;;;;;;;9.80;100.00;100342.69;7386302;19;20479;-40
2023/10/24 09:51:35;;;;;;;19.90;13.40;;;;;;;9.79;100.00;100352.97;7364032;19;20437;-40
2023/10/24 09:54:08;;;;;;;22.40;12.20;;;;;;;9.77;100.00;100358.06;7386052;19;20464;-40
2023/10/24 09:56:38;;;;;;;22.00;12.93;;;;;;;9.80;100.00;100365.88;7363959;19;20507;-40
2023/10/24 09:59:07;;;;;;;23.47;13.50;;;;;;;9.87;100.00;100372.16;7385724;19;21023;-40
2023/10/24 10:01:37;;;;;;;19.57;12.20;;;;;;;9.88;100.00;100373.06;7362782;19;20799;-40
2023/10/24 10:04:08;;;;;;;17.37;11.50;;;;;;;9.91;100.00;100375.75;7386134;19;20455;-41
2023/10/24 10:06:38;;;;;;;31.20;12.77;;;;;;;9.89;100.00;100385.97;7363278;19;20506;-42
2023/10/24 10:09:30;;;;;;;19.00;13.13;;;;;;;9.92;100.00;100391.28;7387361;19;20749;-40
2023/10/24 10:12:02;;;;;;;21.40;12.07;;;;;;;9.98;100.00;100398.34;7359619;19;20498;-41
2023/10/24 10:14:39;;;;;;;17.97;11.90;;;;;;;10.03;100.00;100394.25;7383475;19;21456;-41
2023/10/24 10:17:15;;;;;;;18.87;12.10;;;;;;;10.06;100.00;100389.19;7362876;19;20456;-41
2023/10/24 10:20:08;;;;;;;18.77;11.67;;;;;;;10.03;100.00;100402.00;7386661;19;20833;-41
2023/10/24 10:22:49;;;;;;;17.63;11.90;;;;;;;9.98;100.00;100403.50;7360672;19;20520;-41
2023/10/24 10:25:56;;;;;;;21.97;12.97;;;;;;;10.05;100.00;100397.75;7383134;19;20407;-41
2023/10/24 10:28:38;;;;;;;17.83;11.60;;;;;;;10.08;100.00;100405.63;7358710;19;20967;-40
2023/10/24 10:31:16;;;;;;;20.63;12.33;;;;;;;10.16;100.00;100400.75;7359759;19;20814;-43
2023/10/24 10:34:06;;;;;;;20.17;12.10;;;;;;;10.22;100.00;100392.38;7383118;19;20411;-41
2023/10/24 10:36:36;;;;;;;18.27;11.70;;;;;;;10.14;100.00;100399.81;7360345;19;20419;-43
2023/10/24 10:39:11;;;;;;;22.30;13.60;;;;;;;10.13;100.00;100404.09;7383356;19;21154;-40
2023/10/24 10:41:45;;;;;;;22.90;11.83;;;;;;;10.22;100.00;100403.56;7355018;19;20425;-42
2023/10/24 10:44:39;;;;;;;18.60;12.77;;;;;;;10.23;100.00;100412.16;7382790;19;20396;-41
2023/10/24 10:47:16;;;;;;;20.00;11.83;;;;;;;10.27;100.00;100421.78;7361750;19;20845;-41
2023/10/24 10:49:51;;;;;;;22.70;12.33;;;;;;;10.22;100.00;100434.53;7386585;19;20874;-41
2023/10/24 10:52:36;;;;;;;25.13;14.27;;;;;;;10.27;100.00;100450.16;7360753;19;20454;-40
2023/10/24 10:55:14;;;;;;;23.23;13.10;;;;;;;10.32;100.00;100450.31;7385180;19;20422;-40
2023/10/24 10:58:05;;;;;;;25.60;13.13;;;;;;;10.35;100.00;100450.41;7361151;19;20866;-41
2023/10/24 11:00:45;;;;;;;22.70;13.73;;;;;;;10.43;100.00;100448.19;7377452;19;20870;-40
2023/10/24 11:03:39;;;;;;;22.83;14.37;;;;;;;10.42;100.00;100441.22;7383344;19;20770;-41
2023/10/24 11:06:10;;;;;;;25.50;14.97;;;;;;;10.51;100.00;100454.53;7361614;19;20418;-41
2023/10/24 11:08:41;;;;;;;24.30;15.00;;;;;;;10.52;100.00;100453.69;7382997;19;20424;-45
2023/10/24 11:11:12;;;;;;;22.63;13.67;;;;;;;10.58;100.00;100469.41;7359638;19;20509;-41
2023/10/24 11:13:47;;;;;;;23.00;13.40;;;;;;;10.55;100.00;100468.41;7381423;19;20439;-41
2023/10/24 11:16:17;;;;;;;21.70;13.70;;;;;;;10.58;100.00;100469.41;7360615;19;20499;-41
2023/10/24 11:19:06;;;;;;;24.70;14.63;;;;;;;10.63;100.00;100478.19;7389165;19;20874;-40
2023/10/24 11:21:36;;;;;;;18.87;13.77;;;;;;;10.66;100.00;100486.03;7367887;19;20429;-40
2023/10/24 11:24:05;;;;;;;20.90;13.30;;;;;;;10.70;100.00;100484.44;7389651;19;20435;-40
2023/10/24 11:26:35;;;;;;;20.47;12.90;;;;;;;10.75;100.00;100482.03;7367270;19;20423;-41
2023/10/24 11:29:10;;;;;;;23.17;13.20;;;;;;;10.79;100.00;100478.75;7389415;19;20402;-40
2023/10/24 11:31:40;;;;;;;21.80;14.60;;;;;;;10.78;100.00;100472.69;7366115;19;20432;-40